»·PEaware :: N360BG KDEN-KSMF

N360BG :: KDEN-KSMF

FLIGHT INFORMATION

Flight Status: Arrived
Operator: Privately registered:
United States
More flights under this callsign
Pilot: Brandon G. (13)
Aircraft: BOEING 757-200
(B752)
More flights by this aircraft type
Origin: KDEN Denver Intl
United States
Destination: KSMF Sacramento Intl
United States
More flights between these airports :: More routes between these airports
Route: +COORZ3 VOAXA KD57Q PAWLY J84 MVA CRASY SLMMR3
File this flight plan on PilotEdge
Remarks:
Altitude:
(Current/Filed)
40,000ft
Speed:
(Current/Filed)
428kts
Departed: 24-Nov-17 04:08 PM
Arrived: 24-Nov-17 06:33 PM
Distance/Time
Traveled:
788nm/2:24
Distance/Time
To Go:
Arrived

Flight Plot

Page will automatically refresh every two minutes.

Flight plan parsing failed; only flown route is shown


Map Options




Map Legend


Flown Route
Filed Route
Departure Airport
Arrival Airport
Navaid (VOR, NDB)
Fix

Horizontal Profiles

Position Reports

Time Latitude Longitude Heading Altitude Ground
Speed
24-Nov-17 15:17 39.838757 -104.665078 251 5446ft 0kts
24-Nov-17 15:18 39.838235 -104.663847 267 5446ft 0kts
24-Nov-17 15:19 39.838236 -104.663847 266 5446ft 0kts
24-Nov-17 15:20 39.838236 -104.663847 266 5446ft 0kts
24-Nov-17 15:21 39.838236 -104.663847 266 5446ft 0kts
24-Nov-17 15:22 39.838236 -104.663847 266 5446ft 0kts
24-Nov-17 15:23 39.838236 -104.663847 266 5446ft 0kts
24-Nov-17 15:24 39.838236 -104.663847 266 5446ft 0kts
24-Nov-17 15:25 39.838236 -104.663847 266 5446ft 0kts
24-Nov-17 15:26 39.838236 -104.663847 266 5446ft 0kts
24-Nov-17 15:27 39.838236 -104.663847 266 5446ft 0kts
24-Nov-17 15:28 39.838236 -104.663847 266 5446ft 0kts
24-Nov-17 15:29 39.838236 -104.663847 266 5446ft 0kts
24-Nov-17 15:30 39.838236 -104.663847 266 5446ft 0kts
24-Nov-17 15:31 39.838236 -104.663847 266 5446ft 0kts
24-Nov-17 15:32 39.838236 -104.663847 266 5446ft 0kts
24-Nov-17 15:33 39.838236 -104.663847 266 5446ft 0kts
24-Nov-17 15:34 39.838236 -104.663847 266 5446ft 0kts
24-Nov-17 15:35 39.838236 -104.663847 266 5446ft 0kts
24-Nov-17 15:36 39.838236 -104.663847 266 5446ft 0kts
24-Nov-17 15:37 39.838236 -104.663847 266 5446ft 0kts
24-Nov-17 15:38 39.838236 -104.663847 266 5446ft 0kts
24-Nov-17 15:39 39.838236 -104.663847 266 5446ft 0kts
24-Nov-17 15:40 39.838236 -104.663847 266 5446ft 0kts
24-Nov-17 15:41 39.838236 -104.663847 266 5446ft 0kts
24-Nov-17 15:42 39.838236 -104.663847 266 5446ft 0kts
24-Nov-17 15:43 39.838236 -104.663847 266 5446ft 0kts
24-Nov-17 15:44 39.838236 -104.663847 266 5446ft 0kts
24-Nov-17 15:45 39.838236 -104.663847 266 5446ft 0kts
24-Nov-17 15:46 39.838236 -104.663847 266 5446ft 0kts
24-Nov-17 15:47 39.838236 -104.663847 266 5446ft 0kts
24-Nov-17 15:48 39.838236 -104.663847 266 5446ft 0kts
24-Nov-17 15:49 39.838236 -104.663847 266 5446ft 0kts
24-Nov-17 15:50 39.838236 -104.663847 266 5446ft 0kts
24-Nov-17 15:51 39.838236 -104.663847 266 5446ft 0kts
24-Nov-17 15:52 39.838236 -104.663847 266 5446ft 0kts
24-Nov-17 15:53 39.838236 -104.663847 266 5446ft 0kts
24-Nov-17 15:54 39.838236 -104.663847 266 5446ft 0kts
24-Nov-17 15:55 39.838236 -104.663847 266 5446ft 0kts
24-Nov-17 15:56 39.838236 -104.663847 266 5446ft 0kts
24-Nov-17 15:57 39.838236 -104.663847 266 5446ft 0kts
24-Nov-17 15:58 39.838236 -104.663847 266 5446ft 0kts
24-Nov-17 15:59 39.838249 -104.663927 289 5446ft 2kts
24-Nov-17 16:00 39.839928 -104.663505 31 5445ft 9kts
24-Nov-17 16:01 39.838022 -104.662406 180 5446ft 11kts
24-Nov-17 16:02 39.834670 -104.662502 180 5446ft 12kts
24-Nov-17 16:03 39.831012 -104.662529 180 5446ft 13kts
24-Nov-17 16:04 39.828439 -104.662035 96 5446ft 0kts
24-Nov-17 16:05 39.828439 -104.662035 96 5446ft 0kts
24-Nov-17 16:06 39.828439 -104.662035 96 5446ft 0kts
24-Nov-17 16:07 39.828439 -104.662035 96 5446ft 0kts
24-Nov-17 16:08 39.828439 -104.662035 96 5446ft 0kts
24-Nov-17 16:09 39.828439 -104.662035 96 5446ft 0kts
24-Nov-17 16:10 39.828439 -104.662035 96 5446ft 0kts
24-Nov-17 16:11 39.828439 -104.662035 96 5446ft 0kts
24-Nov-17 16:12 39.828439 -104.662035 96 5446ft 0kts
24-Nov-17 16:13 39.837940 -104.660404 357 5467ft 135kts
24-Nov-17 16:14 39.885583 -104.668954 320 7774ft 225kts
24-Nov-17 16:15 39.906633 -104.750953 287 10598ft 254kts
24-Nov-17 16:16 39.928707 -104.847874 288 13125ft 324kts
24-Nov-17 16:17 39.944598 -104.970192 274 16680ft 356kts
24-Nov-17 16:18 39.932487 -105.102269 267 20069ft 378kts
24-Nov-17 16:19 39.916637 -105.237612 267 23042ft 388kts
24-Nov-17 16:20 39.900628 -105.375119 268 23010ft 385kts
24-Nov-17 16:21 39.884362 -105.513110 268 25588ft 392kts
24-Nov-17 16:22 39.867773 -105.651263 268 27991ft 399kts
24-Nov-17 16:23 39.853006 -105.791841 271 30187ft 403kts
24-Nov-17 16:24 39.840844 -105.932234 272 33204ft 383kts
24-Nov-17 16:25 39.829257 -106.065313 272 35593ft 371kts
24-Nov-17 16:26 39.818038 -106.196385 273 37348ft 369kts
24-Nov-17 16:27 39.806447 -106.327879 273 38825ft 370kts
24-Nov-17 16:28 39.794734 -106.458967 272 40125ft 366kts
24-Nov-17 16:29 39.786733 -106.550046 274 40104ft 367kts
24-Nov-17 16:30 39.777653 -106.678556 273 40122ft 367kts
24-Nov-17 16:31 39.768328 -106.809461 273 40117ft 368kts
24-Nov-17 16:32 39.759025 -106.938946 273 40118ft 360kts
24-Nov-17 16:33 39.750323 -107.066357 273 40111ft 355kts
24-Nov-17 16:34 39.741023 -107.192811 272 40110ft 356kts
24-Nov-17 16:35 39.731633 -107.319853 272 40103ft 355kts
24-Nov-17 16:36 39.722439 -107.443259 272 40077ft 357kts
24-Nov-17 16:37 39.712712 -107.570788 272 40056ft 356kts
24-Nov-17 16:38 39.702937 -107.695705 272 40084ft 358kts
24-Nov-17 16:39 39.692860 -107.822927 272 40080ft 357kts
24-Nov-17 16:40 39.682521 -107.949793 272 40070ft 357kts
24-Nov-17 16:41 39.672466 -108.077076 272 40077ft 357kts
24-Nov-17 16:42 39.662126 -108.203975 272 40091ft 357kts
24-Nov-17 16:43 39.651565 -108.331017 272 40087ft 357kts
24-Nov-17 16:44 39.640547 -108.458216 272 40075ft 357kts
24-Nov-17 16:45 39.629890 -108.585787 272 40070ft 357kts
24-Nov-17 16:46 39.619150 -108.710451 271 40090ft 358kts
24-Nov-17 16:47 39.607993 -108.838032 272 40084ft 357kts
24-Nov-17 16:48 39.596816 -108.964058 271 40082ft 357kts
24-Nov-17 16:49 39.585398 -109.091385 271 40079ft 358kts
24-Nov-17 16:50 39.573777 -109.219184 270 40076ft 359kts
24-Nov-17 16:51 39.561984 -109.346923 270 40066ft 359kts
24-Nov-17 16:52 39.549714 -109.475114 270 40057ft 359kts
24-Nov-17 16:53 39.537914 -109.602599 270 40052ft 359kts
24-Nov-17 16:54 39.525927 -109.728085 269 40070ft 360kts
24-Nov-17 16:55 39.513332 -109.855936 269 40067ft 359kts
24-Nov-17 16:56 39.500903 -109.984543 270 40073ft 360kts
24-Nov-17 16:57 39.491222 -110.112633 271 40095ft 358kts
24-Nov-17 16:58 39.481351 -110.240468 270 40103ft 359kts
24-Nov-17 16:59 39.471880 -110.368181 271 40102ft 358kts
24-Nov-17 17:00 39.462200 -110.496424 271 40099ft 359kts
24-Nov-17 17:01 39.452261 -110.624555 271 40096ft 359kts
24-Nov-17 17:02 39.442184 -110.750777 270 40115ft 359kts
24-Nov-17 17:03 39.431621 -110.878739 270 40112ft 359kts
24-Nov-17 17:04 39.420902 -111.006803 270 40111ft 359kts
24-Nov-17 17:05 39.410281 -111.134995 270 40107ft 360kts
24-Nov-17 17:06 39.399568 -111.263079 270 40105ft 360kts
24-Nov-17 17:07 39.388708 -111.391440 270 40104ft 360kts
24-Nov-17 17:08 39.377745 -111.519416 270 40120ft 360kts
24-Nov-17 17:09 39.366627 -111.647472 270 40132ft 360kts
24-Nov-17 17:10 39.355415 -111.774981 269 40146ft 360kts
24-Nov-17 17:11 39.343995 -111.903267 269 40141ft 361kts
24-Nov-17 17:12 39.332429 -112.031556 269 40138ft 361kts
24-Nov-17 17:13 39.320743 -112.159566 269 40136ft 360kts
24-Nov-17 17:14 39.308871 -112.288094 269 40132ft 361kts
24-Nov-17 17:15 39.296895 -112.415762 269 40130ft 361kts
24-Nov-17 17:16 39.284739 -112.544136 269 40127ft 361kts
24-Nov-17 17:17 39.272572 -112.670560 269 40143ft 362kts
24-Nov-17 17:18 39.260162 -112.798544 269 40154ft 361kts
24-Nov-17 17:19 39.247553 -112.926725 268 40150ft 364kts
24-Nov-17 17:20 39.234788 -113.056129 267 40147ft 366kts
24-Nov-17 17:21 39.221880 -113.185189 268 40144ft 366kts
24-Nov-17 17:22 39.208771 -113.314444 267 40138ft 366kts
24-Nov-17 17:23 39.195432 -113.444225 267 40106ft 367kts
24-Nov-17 17:24 39.180312 -113.573212 267 40081ft 367kts
24-Nov-17 17:25 39.165218 -113.700285 266 40102ft 368kts
24-Nov-17 17:26 39.149622 -113.829624 266 40121ft 367kts
24-Nov-17 17:27 39.133835 -113.958474 266 40177ft 368kts
24-Nov-17 17:28 39.118028 -114.087634 266 40202ft 368kts
24-Nov-17 17:29 39.102065 -114.216927 266 40199ft 368kts
24-Nov-17 17:30 39.085482 -114.345815 266 40197ft 367kts
24-Nov-17 17:31 39.070147 -114.474852 267 40195ft 367kts
24-Nov-17 17:32 39.056918 -114.582370 266 40192ft 368kts
24-Nov-17 17:33 39.040761 -114.708654 265 40212ft 368kts
24-Nov-17 17:34 39.021042 -114.860118 265 40208ft 371kts
24-Nov-17 17:35 39.004203 -114.989971 265 40205ft 374kts
24-Nov-17 17:36 38.987111 -115.121926 264 40202ft 379kts
24-Nov-17 17:37 38.972594 -115.233425 264 40199ft 383kts
24-Nov-17 17:38 38.951758 -115.390248 263 40196ft 386kts
24-Nov-17 17:39 38.933492 -115.525708 263 40194ft 390kts
24-Nov-17 17:40 38.917964 -115.639811 263 40193ft 392kts
24-Nov-17 17:41 38.896276 -115.797657 262 40203ft 396kts
24-Nov-17 17:42 38.880305 -115.912949 262 40201ft 399kts
24-Nov-17 17:43 38.860570 -116.052536 262 40201ft 399kts
24-Nov-17 17:44 38.840922 -116.191158 262 40196ft 399kts
24-Nov-17 17:45 38.821138 -116.330104 262 40188ft 399kts
24-Nov-17 17:46 38.801154 -116.468999 262 40181ft 399kts
24-Nov-17 17:47 38.781067 -116.607755 262 40173ft 399kts
24-Nov-17 17:48 38.761122 -116.744295 262 40180ft 399kts
24-Nov-17 17:49 38.740684 -116.883033 261 40172ft 399kts
24-Nov-17 17:50 38.720053 -117.022015 261 40164ft 398kts
24-Nov-17 17:51 38.699589 -117.160383 261 40161ft 397kts
24-Nov-17 17:52 38.678682 -117.299150 261 40159ft 397kts
24-Nov-17 17:53 38.657727 -117.437133 261 40157ft 397kts
24-Nov-17 17:54 38.636359 -117.575185 261 40156ft 397kts
24-Nov-17 17:55 38.615540 -117.708755 260 40160ft 398kts
24-Nov-17 17:56 38.594134 -117.846948 261 40141ft 398kts
24-Nov-17 17:57 38.572542 -117.984795 260 40137ft 397kts
24-Nov-17 17:58 38.573836 -118.124024 277 39391ft 395kts
24-Nov-17 17:59 38.600056 -118.259403 283 38278ft 396kts
24-Nov-17 18:00 38.626635 -118.391970 282 37191ft 377kts
24-Nov-17 18:01 38.653225 -118.521386 283 36167ft 377kts
24-Nov-17 18:02 38.679299 -118.649941 283 35153ft 380kts
24-Nov-17 18:03 38.704444 -118.775044 282 34253ft 382kts
24-Nov-17 18:04 38.730748 -118.906679 282 33298ft 385kts
24-Nov-17 18:05 38.757060 -119.039347 281 32336ft 390kts
24-Nov-17 18:06 38.783609 -119.174082 282 31360ft 395kts
24-Nov-17 18:07 38.809006 -119.311205 281 30370ft 400kts
24-Nov-17 18:08 38.835923 -119.448997 282 29360ft 400kts
24-Nov-17 18:09 38.863346 -119.586173 282 28315ft 396kts
24-Nov-17 18:10 38.888769 -119.716994 282 27337ft 391kts
24-Nov-17 18:11 38.914293 -119.850561 281 26354ft 384kts
24-Nov-17 18:12 38.939262 -119.982367 281 25358ft 377kts
24-Nov-17 18:13 38.963371 -120.112132 281 24023ft 371kts
24-Nov-17 18:14 38.987263 -120.238610 281 22249ft 363kts
24-Nov-17 18:15 39.010709 -120.363371 281 20587ft 356kts
24-Nov-17 18:16 39.034281 -120.484999 281 19054ft 351kts
24-Nov-17 18:17 39.056436 -120.605548 280 17579ft 347kts
24-Nov-17 18:18 39.067467 -120.706538 257 16753ft 323kts
24-Nov-17 18:19 39.041487 -120.814539 252 15684ft 316kts
24-Nov-17 18:20 39.013872 -120.921243 252 14723ft 318kts
24-Nov-17 18:21 38.985827 -121.028612 252 13772ft 318kts
24-Nov-17 18:22 38.958879 -121.135399 253 12642ft 317kts
24-Nov-17 18:23 38.933218 -121.241887 254 11125ft 313kts
24-Nov-17 18:24 38.908029 -121.345574 254 10243ft 286kts
24-Nov-17 18:25 38.873354 -121.432250 235 9130ft 281kts
24-Nov-17 18:26 38.825693 -121.509861 234 8025ft 271kts
24-Nov-17 18:27 38.778732 -121.585081 234 6965ft 261kts
24-Nov-17 18:28 38.736271 -121.657454 235 5858ft 259kts
24-Nov-17 18:29 38.678345 -121.695186 183 5392ft 234kts
24-Nov-17 18:30 38.614686 -121.696374 181 4274ft 223kts
24-Nov-17 18:31 38.557217 -121.696998 181 3286ft 203kts
24-Nov-17 18:32 38.518269 -121.662400 92 2139ft 192kts
24-Nov-17 18:33 38.543497 -121.615643 31 2018ft 172kts
24-Nov-17 18:34 38.584840 -121.601872 2 1997ft 143kts
24-Nov-17 18:35 38.624026 -121.602695 358 1195ft 136kts
24-Nov-17 18:36 38.661643 -121.602015 358 567ft 138kts
24-Nov-17 18:37 38.693910 -121.601306 0 28ft 72kts
24-Nov-17 18:38 38.697048 -121.599647 89 29ft 4kts
24-Nov-17 18:39 38.690500 -121.598733 180 30ft 31kts
24-Nov-17 18:40 38.681966 -121.598855 162 28ft 13kts
24-Nov-17 18:41 38.681470 -121.597520 356 28ft 0kts
24-Nov-17 18:42 38.681440 -121.597518 356 28ft 0kts
24-Nov-17 18:43 38.681261 -121.597504 355 28ft 0kts

Navigation Log

Ident Type
Flight plan parsing failed, navigation log unavailable